Dover, KS (66420)

1:57 PM CST on February 27, 2017 (GMT -0600)
SW Dover | | Change Station

Elev 1115 ft 38.94 °N, 95.95 °W | Updated 16 seconds ago

Overcast
Overcast
62.4 °F
Feels Like 62.4 °F
N
10.0
Wind Variable Wind from WNW

Today
High -- | Low -- °F
--% Chance of Precip.
Yesterday
High -- | Low -- °F
Precip. -- in
Pressure 29.86 in
Visibility 10.0 miles
Clouds Few 4100 ft
Mostly Cloudy 6000 ft
Dew Point 41 °F
Humidity 45%
Rainfall 0.00 in
Snow Depth Not available.
6:58 AM 6:14 PM
New Moon, 2% visible
METAR KFOE 271953Z 16018G23KT 10SM FEW041 BKN060 17/03 A2985 RMK AO2 PK WND 16026/1934 PRESFR SLP111 T01670033
Pressure 29.86 in
Visibility 10.0 miles
Clouds Few 4100 ft
Mostly Cloudy 6000 ft
Dew Point 41 °F
Humidity 45%
Rainfall 0.00 in
Snow Depth Not available.
6:58 AM 6:14 PM
New Moon, 2% visible
METAR KFOE 271953Z 16018G23KT 10SM FEW041 BKN060 17/03 A2985 RMK AO2 PK WND 16026/1934 PRESFR SLP111 T01670033

Get Your Daily Forecast Email!

Thanks for signing up!

Be on the lookout for a verification email in your inbox.

You'll start receiving the daily forecast at 8 AM.

×

10-Day Weather Forecast

Almanac

Astronomy

Feb. 27, 2017 Rise Set
Actual Time
Civil Twilight
Nautical Twilight
Astronomical Twilight
Moon
Length of Visible Light
Length of Day
Tomorrow will be .
, % of the Moon is Illuminated

Today's Extremes

State Highs State Lows

Community

WunderPhotos

Upload Photos

1,962,540 photos uploaded!

WunderBlog® & News

Nearby

Air Quality

  Air Quality AQ Index Pollutant
Not available.

Snow Depth

Station Depth Elevation

Earthquake Activity

City Distance Mag. Time & Date
Minimum magnitude displayed is 2.5.

Coastal Water Temperatures

Place Temperature

Stations

Nearby Weather Stations

Station Location Temp. Windchill Dew Point Humidity Wind Precip. Elev Updated Type
                   

Watches & Warnings

There are currently no watches in effect.